Cairns AAF (Fort Rucker) Air Field
KOZR : now visible

Airfield :











YOU CAN JOIN US ON...

 
LOGIN :

Register | Disclaimer

   EN    FR    IT 

 









Legend :    VFR   Marginal VFR   IFR   Intensive IFR   Very Intensive IFR
Visi :
Ceiling :
>= 8 km
>= 3000ft
5 to 8 km
1000 to 3000 ft
1500m to 5 km
500 to 1000 ft
800 to 1500m
200 to 500 ft
< 800m
< 200 ft
Symbols :   Thunderstorms  Fog  Heavy snow  Heavy precipitations  Wind > 20 kt







- Airport Elevation : 301 ft


KOZR - Cairns AAF (Fort Rucker) Air Field

CURRENT METAR :
  • 211656Z AUTO 08011G16KT 10SM CLR 30/14 A3023 RMK AO2 SLP237 T02950141

EXPIRED METARs :
  • 211556Z AUTO 13010KT 10SM FEW035 SCT045 SCT200 29/17 A3025 RMK AO2 SLP243 T02930168
  • 211456Z AUTO 12007KT 10SM FEW026 27/19 A3027 RMK AO2 SLP250 T02680191 51010

TAF TAF KOZR
Valid from the 21 at 16:00 until the 22 at 22:00 UTC


211600Z 2116/2222 10010G15KT 9999 FEW040 QNH3016INS
BECMG 2203/2204 VRB06KT 9999 FEW045 QNH3011INS TX30/2120Z TN18/2212Z LAST NO AMDS AFT 2119 NEXT 2208
No reported NOTAMs for that airfield.



MET'MAP, your aeronautical weather chart ! - Copyright ORBIFLY December 2007 - Disclaimer

ORBIFLY MET'MAP TEAM :

Programming & Development : Alexandra Zaïnal
Concept & Development : Baudouin d'Aumeries
Co-Development & Prog : Marc-Olivier Méhu
Technical & hardware support : Manuel Goepfert

Contact : metmap@orbifly.com




SOURCES & CREDITS :

   NOAA       Earth
Advisory